This is the latest recevied weather packets stored in our database for station/object AC8UJ. If no packets are shown the sender has not sent any weather packets the latest 10 day(s).
| Time | Temp. | Humidity | Pressure | Rain* | Wind** | Luminosity | Snow |
|---|---|---|---|---|---|---|---|
| 1777316416 | 25.56° C | 53% | - | 0 mm | - | - | - |
| 1777307439 | 24.44° C | 61% | - | 0 mm | - | - | - |
| 1777306837 | 23.33° C | 62% | - | 0 mm | - | - | - |
| 1777303816 | 20° C | 67% | - | 0 mm | - | - | - |
| 1777298417 | 16.67° C | 73% | - | 0 mm | - | - | - |
| 1777297215 | 15.56° C | 76% | - | 0 mm | - | - | - |
| 1777288816 | 10° C | 90% | - | 0 mm | - | - | - |
| 1777278616 | 10.56° C | 88% | - | 0 mm | - | - | - |
| 1777275616 | 10.56° C | 89% | - | 0 mm | - | - | - |
| 1777275016 | 10.56° C | 88% | - | 0 mm | - | - | - |
| 1777271436 | 10.56° C | 88% | - | 0 mm | - | - | - |
| 1777267216 | 12.22° C | 82% | - | 0 mm | - | - | - |
| 1777264218 | 12.78° C | 80% | - | 0 mm | - | - | - |
| 1777258817 | 13.89° C | 76% | - | 0 mm | - | - | - |
| 1777258216 | 13.89° C | 75% | - | 0 mm | - | - | - |
| 1777256416 | 13.89° C | 74% | - | 0 mm | - | - | - |
| 1777255216 | 14.44° C | 73% | - | 0 mm | - | - | - |
| 1777249818 | 16.67° C | 65% | - | 0 mm | - | - | - |
| 1777247417 | 18.33° C | 62% | - | 0 mm | - | - | - |
| 1777242016 | 18.89° C | 61% | - | 0 mm | - | - | - |
| 1777240215 | 18.89° C | 61% | - | 0 mm | - | - | - |
| 1777239016 | 18.89° C | 61% | - | 0 mm | - | - | - |
| 1777236016 | 18.89° C | 62% | - | 0 mm | - | - | - |
| 1777233616 | 17.78° C | 65% | - | 0 mm | - | - | - |
| 1777229416 | 17.22° C | 64% | - | 0 mm | - | - | - |
* Rain latest hour (hover to see other rain measurements)
** Current wind speed in m/s (hover to see current wind gust speed)